sensor_id;sensor_type;location;lat;lon;timestamp;P1;durP1;ratioP1;P2;durP2;ratioP2
26311;SDS011;14019;56.964;24.016;2022-12-18T00:00:20;47.17;;;14.13;;
26311;SDS011;14019;56.964;24.016;2022-12-18T00:03:06;43.78;;;13.18;;
26311;SDS011;14019;56.964;24.016;2022-12-18T00:05:53;44.67;;;12.60;;
26311;SDS011;14019;56.964;24.016;2022-12-18T00:08:39;46.25;;;14.73;;
26311;SDS011;14019;56.964;24.016;2022-12-18T00:11:27;44.92;;;13.85;;
26311;SDS011;14019;56.964;24.016;2022-12-18T00:14:13;48.47;;;13.43;;
26311;SDS011;14019;56.964;24.016;2022-12-18T00:17:00;48.70;;;14.05;;
26311;SDS011;14019;56.964;24.016;2022-12-18T00:19:47;46.50;;;13.25;;
26311;SDS011;14019;56.964;24.016;2022-12-18T00:22:33;47.38;;;14.45;;
26311;SDS011;14019;56.964;24.016;2022-12-18T00:25:19;38.38;;;13.05;;
26311;SDS011;14019;56.964;24.016;2022-12-18T00:28:05;32.72;;;10.82;;
26311;SDS011;14019;56.964;24.016;2022-12-18T00:30:59;33.33;;;11.90;;
26311;SDS011;14019;56.964;24.016;2022-12-18T00:33:45;34.22;;;11.52;;
26311;SDS011;14019;56.964;24.016;2022-12-18T00:36:34;37.35;;;11.45;;
26311;SDS011;14019;56.964;24.016;2022-12-18T00:39:20;32.05;;;10.40;;
26311;SDS011;14019;56.964;24.016;2022-12-18T00:42:07;30.50;;;10.18;;
26311;SDS011;14019;56.964;24.016;2022-12-18T00:45:12;29.67;;;10.38;;
26311;SDS011;14019;56.964;24.016;2022-12-18T00:47:59;31.25;;;10.27;;
26311;SDS011;14019;56.964;24.016;2022-12-18T00:50:45;34.92;;;11.13;;
26311;SDS011;14019;56.964;24.016;2022-12-18T00:53:31;29.42;;;9.85;;
26311;SDS011;14019;56.964;24.016;2022-12-18T00:56:17;35.72;;;10.65;;
26311;SDS011;14019;56.964;24.016;2022-12-18T00:59:04;35.92;;;10.57;;
26311;SDS011;14019;56.964;24.016;2022-12-18T01:01:50;29.85;;;10.27;;
26311;SDS011;14019;56.964;24.016;2022-12-18T01:04:37;31.13;;;10.43;;
26311;SDS011;14019;56.964;24.016;2022-12-18T01:07:24;29.67;;;9.90;;
26311;SDS011;14019;56.964;24.016;2022-12-18T01:10:11;31.08;;;10.63;;
26311;SDS011;14019;56.964;24.016;2022-12-18T01:12:58;30.13;;;10.23;;
26311;SDS011;14019;56.964;24.016;2022-12-18T01:15:48;30.73;;;9.95;;
26311;SDS011;14019;56.964;24.016;2022-12-18T01:18:35;31.98;;;10.13;;
26311;SDS011;14019;56.964;24.016;2022-12-18T01:21:21;26.52;;;9.05;;
26311;SDS011;14019;56.964;24.016;2022-12-18T01:24:10;30.40;;;10.20;;
26311;SDS011;14019;56.964;24.016;2022-12-18T01:26:57;32.25;;;10.32;;
26311;SDS011;14019;56.964;24.016;2022-12-18T01:29:43;26.45;;;9.45;;
26311;SDS011;14019;56.964;24.016;2022-12-18T01:32:30;31.98;;;9.70;;
26311;SDS011;14019;56.964;24.016;2022-12-18T01:35:17;28.88;;;9.27;;
26311;SDS011;14019;56.964;24.016;2022-12-18T01:38:03;32.28;;;10.18;;
26311;SDS011;14019;56.964;24.016;2022-12-18T01:40:56;32.83;;;9.55;;
26311;SDS011;14019;56.964;24.016;2022-12-18T01:43:50;24.03;;;7.63;;
26311;SDS011;14019;56.964;24.016;2022-12-18T01:46:37;27.67;;;8.98;;
26311;SDS011;14019;56.964;24.016;2022-12-18T01:49:23;34.92;;;10.05;;
26311;SDS011;14019;56.964;24.016;2022-12-18T01:52:10;24.48;;;9.00;;
26311;SDS011;14019;56.964;24.016;2022-12-18T01:54:56;24.25;;;8.48;;
26311;SDS011;14019;56.964;24.016;2022-12-18T01:57:43;30.40;;;9.07;;
26311;SDS011;14019;56.964;24.016;2022-12-18T02:00:31;31.80;;;10.15;;
26311;SDS011;14019;56.964;24.016;2022-12-18T02:03:17;31.40;;;8.82;;
26311;SDS011;14019;56.964;24.016;2022-12-18T02:09:31;31.40;;;9.88;;
26311;SDS011;14019;56.964;24.016;2022-12-18T02:12:20;27.42;;;8.70;;
26311;SDS011;14019;56.964;24.016;2022-12-18T02:15:51;30.00;;;9.38;;
26311;SDS011;14019;56.964;24.016;2022-12-18T02:18:19;32.35;;;9.07;;
26311;SDS011;14019;56.964;24.016;2022-12-18T02:26:47;26.83;;;9.55;;
26311;SDS011;14019;56.964;24.016;2022-12-18T02:29:43;27.88;;;9.20;;
26311;SDS011;14019;56.964;24.016;2022-12-18T02:32:36;25.88;;;8.88;;
26311;SDS011;14019;56.964;24.016;2022-12-18T02:35:24;26.58;;;8.52;;
26311;SDS011;14019;56.964;24.016;2022-12-18T02:38:15;28.63;;;9.18;;
26311;SDS011;14019;56.964;24.016;2022-12-18T02:41:05;26.13;;;9.55;;
26311;SDS011;14019;56.964;24.016;2022-12-18T02:43:54;27.25;;;9.32;;
26311;SDS011;14019;56.964;24.016;2022-12-18T02:46:51;23.77;;;9.18;;
26311;SDS011;14019;56.964;24.016;2022-12-18T02:52:55;26.30;;;9.15;;
26311;SDS011;14019;56.964;24.016;2022-12-18T03:02:14;32.03;;;10.27;;
26311;SDS011;14019;56.964;24.016;2022-12-18T03:05:25;31.98;;;9.55;;
26311;SDS011;14019;56.964;24.016;2022-12-18T03:08:24;36.38;;;10.65;;
26311;SDS011;14019;56.964;24.016;2022-12-18T03:11:13;31.98;;;10.68;;
26311;SDS011;14019;56.964;24.016;2022-12-18T03:14:00;30.52;;;10.15;;
26311;SDS011;14019;56.964;24.016;2022-12-18T03:16:49;31.67;;;11.02;;
26311;SDS011;14019;56.964;24.016;2022-12-18T03:19:36;30.13;;;10.48;;
26311;SDS011;14019;56.964;24.016;2022-12-18T03:22:24;31.48;;;11.30;;
26311;SDS011;14019;56.964;24.016;2022-12-18T03:25:13;30.13;;;11.23;;
26311;SDS011;14019;56.964;24.016;2022-12-18T03:28:00;33.53;;;10.55;;
26311;SDS011;14019;56.964;24.016;2022-12-18T03:30:49;36.42;;;11.50;;
26311;SDS011;14019;56.964;24.016;2022-12-18T03:33:42;37.30;;;12.07;;
26311;SDS011;14019;56.964;24.016;2022-12-18T03:39:18;29.10;;;10.45;;
26311;SDS011;14019;56.964;24.016;2022-12-18T03:42:24;38.08;;;11.55;;
26311;SDS011;14019;56.964;24.016;2022-12-18T03:45:31;36.80;;;11.50;;
26311;SDS011;14019;56.964;24.016;2022-12-18T03:48:26;33.20;;;11.15;;
26311;SDS011;14019;56.964;24.016;2022-12-18T03:54:10;32.85;;;10.93;;
26311;SDS011;14019;56.964;24.016;2022-12-18T03:57:05;36.85;;;11.23;;
26311;SDS011;14019;56.964;24.016;2022-12-18T03:59:57;32.97;;;10.82;;
26311;SDS011;14019;56.964;24.016;2022-12-18T04:02:58;36.20;;;10.70;;
26311;SDS011;14019;56.964;24.016;2022-12-18T04:05:56;35.13;;;11.27;;
26311;SDS011;14019;56.964;24.016;2022-12-18T04:08:44;33.13;;;10.77;;
26311;SDS011;14019;56.964;24.016;2022-12-18T04:11:34;31.52;;;11.05;;
26311;SDS011;14019;56.964;24.016;2022-12-18T04:14:22;30.73;;;10.18;;
26311;SDS011;14019;56.964;24.016;2022-12-18T04:17:12;33.78;;;11.02;;
26311;SDS011;14019;56.964;24.016;2022-12-18T04:19:58;26.50;;;10.27;;
26311;SDS011;14019;56.964;24.016;2022-12-18T04:22:46;34.15;;;11.15;;
26311;SDS011;14019;56.964;24.016;2022-12-18T04:25:33;31.23;;;11.18;;
26311;SDS011;14019;56.964;24.016;2022-12-18T04:28:25;29.73;;;8.35;;
26311;SDS011;14019;56.964;24.016;2022-12-18T04:31:11;31.10;;;10.95;;
26311;SDS011;14019;56.964;24.016;2022-12-18T04:33:57;31.42;;;10.38;;
26311;SDS011;14019;56.964;24.016;2022-12-18T04:36:44;37.97;;;10.88;;
26311;SDS011;14019;56.964;24.016;2022-12-18T04:39:31;37.45;;;11.13;;
26311;SDS011;14019;56.964;24.016;2022-12-18T04:42:23;30.17;;;10.15;;
26311;SDS011;14019;56.964;24.016;2022-12-18T04:45:09;29.95;;;10.85;;
26311;SDS011;14019;56.964;24.016;2022-12-18T04:47:57;26.20;;;9.60;;
26311;SDS011;14019;56.964;24.016;2022-12-18T04:50:43;31.60;;;10.82;;
26311;SDS011;14019;56.964;24.016;2022-12-18T04:53:29;29.33;;;9.75;;
26311;SDS011;14019;56.964;24.016;2022-12-18T04:56:16;31.77;;;9.77;;
26311;SDS011;14019;56.964;24.016;2022-12-18T04:59:02;29.38;;;10.10;;
26311;SDS011;14019;56.964;24.016;2022-12-18T05:01:48;31.58;;;10.18;;
26311;SDS011;14019;56.964;24.016;2022-12-18T05:04:35;29.67;;;10.23;;
26311;SDS011;14019;56.964;24.016;2022-12-18T05:07:21;30.65;;;10.20;;
26311;SDS011;14019;56.964;24.016;2022-12-18T05:10:08;29.95;;;9.77;;
26311;SDS011;14019;56.964;24.016;2022-12-18T05:12:55;28.23;;;9.45;;
26311;SDS011;14019;56.964;24.016;2022-12-18T05:15:51;25.42;;;8.80;;
26311;SDS011;14019;56.964;24.016;2022-12-18T05:18:38;28.20;;;9.65;;
26311;SDS011;14019;56.964;24.016;2022-12-18T05:21:25;27.92;;;10.15;;
26311;SDS011;14019;56.964;24.016;2022-12-18T05:24:11;32.05;;;10.15;;
26311;SDS011;14019;56.964;24.016;2022-12-18T05:26:57;28.77;;;9.57;;
26311;SDS011;14019;56.964;24.016;2022-12-18T05:29:44;29.45;;;9.43;;
26311;SDS011;14019;56.964;24.016;2022-12-18T05:32:30;36.58;;;9.77;;
26311;SDS011;14019;56.964;24.016;2022-12-18T05:35:16;30.98;;;9.57;;
26311;SDS011;14019;56.964;24.016;2022-12-18T05:38:02;27.98;;;9.45;;
26311;SDS011;14019;56.964;24.016;2022-12-18T05:40:49;26.55;;;9.20;;
26311;SDS011;14019;56.964;24.016;2022-12-18T05:43:36;32.22;;;10.65;;
26311;SDS011;14019;56.964;24.016;2022-12-18T05:46:24;27.85;;;10.32;;
26311;SDS011;14019;56.964;24.016;2022-12-18T05:49:11;25.63;;;9.65;;
26311;SDS011;14019;56.964;24.016;2022-12-18T05:51:57;33.92;;;10.90;;
26311;SDS011;14019;56.964;24.016;2022-12-18T05:54:43;32.13;;;10.07;;
26311;SDS011;14019;56.964;24.016;2022-12-18T05:57:29;30.80;;;9.88;;
26311;SDS011;14019;56.964;24.016;2022-12-18T06:00:15;28.25;;;9.63;;
26311;SDS011;14019;56.964;24.016;2022-12-18T06:03:02;29.27;;;10.23;;
26311;SDS011;14019;56.964;24.016;2022-12-18T06:05:48;31.33;;;10.57;;
26311;SDS011;14019;56.964;24.016;2022-12-18T06:08:34;31.15;;;10.35;;
26311;SDS011;14019;56.964;24.016;2022-12-18T06:11:28;29.70;;;10.88;;
26311;SDS011;14019;56.964;24.016;2022-12-18T06:14:14;30.88;;;10.35;;
26311;SDS011;14019;56.964;24.016;2022-12-18T06:17:02;31.60;;;10.13;;
26311;SDS011;14019;56.964;24.016;2022-12-18T06:19:48;30.08;;;10.25;;
26311;SDS011;14019;56.964;24.016;2022-12-18T06:22:35;30.55;;;10.88;;
26311;SDS011;14019;56.964;24.016;2022-12-18T06:25:21;29.90;;;10.93;;
26311;SDS011;14019;56.964;24.016;2022-12-18T06:28:07;33.85;;;11.65;;
26311;SDS011;14019;56.964;24.016;2022-12-18T06:30:54;35.15;;;11.68;;
26311;SDS011;14019;56.964;24.016;2022-12-18T06:33:41;37.00;;;12.18;;
26311;SDS011;14019;56.964;24.016;2022-12-18T06:36:27;32.60;;;11.48;;
26311;SDS011;14019;56.964;24.016;2022-12-18T06:39:13;37.05;;;11.50;;
26311;SDS011;14019;56.964;24.016;2022-12-18T06:41:59;36.88;;;12.27;;
26311;SDS011;14019;56.964;24.016;2022-12-18T06:44:47;32.78;;;12.00;;
26311;SDS011;14019;56.964;24.016;2022-12-18T06:47:33;34.67;;;11.35;;
26311;SDS011;14019;56.964;24.016;2022-12-18T06:50:19;33.85;;;11.00;;
26311;SDS011;14019;56.964;24.016;2022-12-18T06:53:05;33.13;;;10.95;;
26311;SDS011;14019;56.964;24.016;2022-12-18T06:55:52;32.33;;;11.10;;
26311;SDS011;14019;56.964;24.016;2022-12-18T06:58:39;30.42;;;10.65;;
26311;SDS011;14019;56.964;24.016;2022-12-18T07:01:25;31.75;;;10.88;;
26311;SDS011;14019;56.964;24.016;2022-12-18T07:04:11;34.90;;;11.25;;
26311;SDS011;14019;56.964;24.016;2022-12-18T07:06:58;34.53;;;11.02;;
26311;SDS011;14019;56.964;24.016;2022-12-18T07:09:44;29.55;;;10.68;;
26311;SDS011;14019;56.964;24.016;2022-12-18T07:12:30;34.30;;;11.35;;
26311;SDS011;14019;56.964;24.016;2022-12-18T07:15:17;31.90;;;11.02;;
26311;SDS011;14019;56.964;24.016;2022-12-18T07:18:03;37.55;;;11.55;;
26311;SDS011;14019;56.964;24.016;2022-12-18T07:20:50;33.95;;;11.10;;
26311;SDS011;14019;56.964;24.016;2022-12-18T07:23:36;39.65;;;11.73;;
26311;SDS011;14019;56.964;24.016;2022-12-18T07:26:23;36.60;;;11.95;;
26311;SDS011;14019;56.964;24.016;2022-12-18T07:29:09;37.25;;;11.30;;
26311;SDS011;14019;56.964;24.016;2022-12-18T07:31:55;35.35;;;10.95;;
26311;SDS011;14019;56.964;24.016;2022-12-18T07:34:42;34.65;;;12.30;;
26311;SDS011;14019;56.964;24.016;2022-12-18T07:37:28;37.25;;;12.35;;
26311;SDS011;14019;56.964;24.016;2022-12-18T07:40:15;37.22;;;12.38;;
26311;SDS011;14019;56.964;24.016;2022-12-18T07:43:01;33.20;;;11.82;;
26311;SDS011;14019;56.964;24.016;2022-12-18T07:45:49;34.20;;;11.90;;
26311;SDS011;14019;56.964;24.016;2022-12-18T07:48:35;36.92;;;12.32;;
26311;SDS011;14019;56.964;24.016;2022-12-18T07:51:21;35.70;;;12.55;;
26311;SDS011;14019;56.964;24.016;2022-12-18T07:54:08;38.15;;;12.75;;
26311;SDS011;14019;56.964;24.016;2022-12-18T07:56:54;38.03;;;13.40;;
26311;SDS011;14019;56.964;24.016;2022-12-18T07:59:40;39.92;;;12.88;;
26311;SDS011;14019;56.964;24.016;2022-12-18T08:02:29;39.50;;;12.63;;
26311;SDS011;14019;56.964;24.016;2022-12-18T08:05:16;38.83;;;13.15;;
26311;SDS011;14019;56.964;24.016;2022-12-18T08:08:02;40.17;;;13.63;;
26311;SDS011;14019;56.964;24.016;2022-12-18T08:10:48;43.65;;;13.13;;
26311;SDS011;14019;56.964;24.016;2022-12-18T08:13:34;37.60;;;13.20;;
26311;SDS011;14019;56.964;24.016;2022-12-18T08:16:21;38.42;;;13.32;;
26311;SDS011;14019;56.964;24.016;2022-12-18T08:19:09;44.90;;;13.90;;
26311;SDS011;14019;56.964;24.016;2022-12-18T08:21:56;43.03;;;13.63;;
26311;SDS011;14019;56.964;24.016;2022-12-18T08:24:42;40.20;;;13.05;;
26311;SDS011;14019;56.964;24.016;2022-12-18T08:27:28;43.13;;;13.35;;
26311;SDS011;14019;56.964;24.016;2022-12-18T08:30:15;37.17;;;12.48;;
26311;SDS011;14019;56.964;24.016;2022-12-18T08:33:02;42.08;;;13.05;;
26311;SDS011;14019;56.964;24.016;2022-12-18T08:35:48;40.72;;;13.55;;
26311;SDS011;14019;56.964;24.016;2022-12-18T08:38:35;41.83;;;13.43;;
26311;SDS011;14019;56.964;24.016;2022-12-18T08:41:22;38.90;;;12.73;;
26311;SDS011;14019;56.964;24.016;2022-12-18T08:44:15;39.35;;;12.27;;
26311;SDS011;14019;56.964;24.016;2022-12-18T08:47:23;40.33;;;13.38;;
26311;SDS011;14019;56.964;24.016;2022-12-18T08:50:11;35.08;;;12.23;;
26311;SDS011;14019;56.964;24.016;2022-12-18T08:52:57;39.42;;;13.00;;
26311;SDS011;14019;56.964;24.016;2022-12-18T08:55:43;33.58;;;11.73;;
26311;SDS011;14019;56.964;24.016;2022-12-18T08:58:34;36.67;;;12.07;;
26311;SDS011;14019;56.964;24.016;2022-12-18T09:01:20;37.35;;;12.07;;
26311;SDS011;14019;56.964;24.016;2022-12-18T09:04:07;44.65;;;12.85;;
26311;SDS011;14019;56.964;24.016;2022-12-18T09:06:54;37.50;;;12.77;;
26311;SDS011;14019;56.964;24.016;2022-12-18T09:09:40;35.53;;;11.93;;
26311;SDS011;14019;56.964;24.016;2022-12-18T09:12:27;39.17;;;12.43;;
26311;SDS011;14019;56.964;24.016;2022-12-18T09:15:13;36.92;;;12.50;;
26311;SDS011;14019;56.964;24.016;2022-12-18T09:17:59;41.05;;;13.00;;
26311;SDS011;14019;56.964;24.016;2022-12-18T09:20:46;37.22;;;12.68;;
26311;SDS011;14019;56.964;24.016;2022-12-18T09:23:32;37.58;;;11.85;;
26311;SDS011;14019;56.964;24.016;2022-12-18T09:26:19;37.03;;;12.50;;
26311;SDS011;14019;56.964;24.016;2022-12-18T09:29:06;33.92;;;12.05;;
26311;SDS011;14019;56.964;24.016;2022-12-18T09:31:53;32.92;;;12.07;;
26311;SDS011;14019;56.964;24.016;2022-12-18T09:34:39;33.25;;;11.32;;
26311;SDS011;14019;56.964;24.016;2022-12-18T09:37:26;34.92;;;12.02;;
26311;SDS011;14019;56.964;24.016;2022-12-18T09:40:18;34.00;;;11.68;;
26311;SDS011;14019;56.964;24.016;2022-12-18T09:43:05;36.40;;;12.40;;
26311;SDS011;14019;56.964;24.016;2022-12-18T09:45:55;35.53;;;12.30;;
26311;SDS011;14019;56.964;24.016;2022-12-18T09:48:46;35.45;;;12.23;;
26311;SDS011;14019;56.964;24.016;2022-12-18T09:51:36;35.20;;;11.75;;
26311;SDS011;14019;56.964;24.016;2022-12-18T09:54:30;38.95;;;12.55;;
26311;SDS011;14019;56.964;24.016;2022-12-18T09:57:20;38.70;;;12.77;;
26311;SDS011;14019;56.964;24.016;2022-12-18T10:00:18;38.67;;;13.05;;
26311;SDS011;14019;56.964;24.016;2022-12-18T10:03:11;38.80;;;13.05;;
26311;SDS011;14019;56.964;24.016;2022-12-18T10:06:04;36.92;;;13.10;;
26311;SDS011;14019;56.964;24.016;2022-12-18T10:20:58;33.50;;;12.35;;
26311;SDS011;14019;56.964;24.016;2022-12-18T10:23:53;39.40;;;13.80;;
26311;SDS011;14019;56.964;24.016;2022-12-18T10:26:52;36.28;;;13.50;;
26311;SDS011;14019;56.964;24.016;2022-12-18T10:29:39;42.08;;;13.82;;
26311;SDS011;14019;56.964;24.016;2022-12-18T10:32:26;36.42;;;13.50;;
26311;SDS011;14019;56.964;24.016;2022-12-18T10:35:23;40.90;;;14.32;;
26311;SDS011;14019;56.964;24.016;2022-12-18T10:41:03;37.55;;;13.65;;
26311;SDS011;14019;56.964;24.016;2022-12-18T10:44:14;37.55;;;13.68;;
26311;SDS011;14019;56.964;24.016;2022-12-18T10:47:02;35.30;;;12.75;;
26311;SDS011;14019;56.964;24.016;2022-12-18T10:49:56;38.53;;;13.48;;
26311;SDS011;14019;56.964;24.016;2022-12-18T10:52:43;36.83;;;13.85;;
26311;SDS011;14019;56.964;24.016;2022-12-18T10:55:36;38.75;;;14.65;;
26311;SDS011;14019;56.964;24.016;2022-12-18T10:58:34;43.10;;;14.65;;
26311;SDS011;14019;56.964;24.016;2022-12-18T11:01:21;44.45;;;15.48;;
26311;SDS011;14019;56.964;24.016;2022-12-18T11:04:08;45.05;;;16.45;;
26311;SDS011;14019;56.964;24.016;2022-12-18T11:07:05;40.92;;;15.40;;
26311;SDS011;14019;56.964;24.016;2022-12-18T11:10:01;45.08;;;15.02;;
26311;SDS011;14019;56.964;24.016;2022-12-18T11:12:47;41.88;;;15.02;;
26311;SDS011;14019;56.964;24.016;2022-12-18T11:15:34;39.45;;;15.05;;
26311;SDS011;14019;56.964;24.016;2022-12-18T11:21:11;40.20;;;14.85;;
26311;SDS011;14019;56.964;24.016;2022-12-18T11:23:59;47.50;;;16.35;;
26311;SDS011;14019;56.964;24.016;2022-12-18T11:26:45;47.17;;;16.63;;
26311;SDS011;14019;56.964;24.016;2022-12-18T11:29:39;41.92;;;15.43;;
26311;SDS011;14019;56.964;24.016;2022-12-18T11:32:38;42.70;;;15.80;;
26311;SDS011;14019;56.964;24.016;2022-12-18T11:38:23;43.38;;;16.30;;
26311;SDS011;14019;56.964;24.016;2022-12-18T11:43:58;49.78;;;17.73;;
26311;SDS011;14019;56.964;24.016;2022-12-18T11:46:55;48.00;;;17.77;;
26311;SDS011;14019;56.964;24.016;2022-12-18T11:49:51;47.33;;;17.52;;
26311;SDS011;14019;56.964;24.016;2022-12-18T11:52:40;48.72;;;17.45;;
26311;SDS011;14019;56.964;24.016;2022-12-18T11:59:07;50.20;;;17.67;;
26311;SDS011;14019;56.964;24.016;2022-12-18T12:29:49;53.65;;;18.85;;
26311;SDS011;14019;56.964;24.016;2022-12-18T12:39:08;54.60;;;19.23;;
26311;SDS011;14019;56.964;24.016;2022-12-18T12:42:01;50.20;;;17.98;;
26311;SDS011;14019;56.964;24.016;2022-12-18T12:45:19;51.20;;;18.52;;
26311;SDS011;14019;56.964;24.016;2022-12-18T12:54:30;50.25;;;18.90;;
26311;SDS011;14019;56.964;24.016;2022-12-18T12:57:30;53.85;;;18.67;;
26311;SDS011;14019;56.964;24.016;2022-12-18T13:00:25;53.03;;;17.90;;
26311;SDS011;14019;56.964;24.016;2022-12-18T13:03:30;47.42;;;18.67;;
26311;SDS011;14019;56.964;24.016;2022-12-18T13:09:23;51.92;;;17.77;;
26311;SDS011;14019;56.964;24.016;2022-12-18T13:34:33;47.50;;;17.48;;
26311;SDS011;14019;56.964;24.016;2022-12-18T13:43:41;50.58;;;17.70;;
26311;SDS011;14019;56.964;24.016;2022-12-18T13:49:45;41.63;;;15.90;;
26311;SDS011;14019;56.964;24.016;2022-12-18T13:52:34;49.38;;;16.77;;
26311;SDS011;14019;56.964;24.016;2022-12-18T13:55:22;47.00;;;16.75;;
26311;SDS011;14019;56.964;24.016;2022-12-18T13:58:11;47.58;;;16.60;;
26311;SDS011;14019;56.964;24.016;2022-12-18T14:01:03;53.45;;;17.38;;
26311;SDS011;14019;56.964;24.016;2022-12-18T14:04:07;43.10;;;15.90;;
26311;SDS011;14019;56.964;24.016;2022-12-18T14:10:16;43.90;;;16.23;;
26311;SDS011;14019;56.964;24.016;2022-12-18T14:13:35;43.95;;;15.48;;
26311;SDS011;14019;56.964;24.016;2022-12-18T14:16:26;44.65;;;15.63;;
26311;SDS011;14019;56.964;24.016;2022-12-18T14:19:17;49.40;;;15.25;;
26311;SDS011;14019;56.964;24.016;2022-12-18T14:22:09;46.75;;;15.70;;
26311;SDS011;14019;56.964;24.016;2022-12-18T14:25:14;37.03;;;12.50;;
26311;SDS011;14019;56.964;24.016;2022-12-18T14:33:57;44.90;;;15.43;;
26311;SDS011;14019;56.964;24.016;2022-12-18T14:36:53;41.47;;;15.52;;
26311;SDS011;14019;56.964;24.016;2022-12-18T14:39:51;47.15;;;16.88;;
26311;SDS011;14019;56.964;24.016;2022-12-18T14:42:38;46.83;;;15.93;;
26311;SDS011;14019;56.964;24.016;2022-12-18T14:45:37;50.65;;;16.42;;
26311;SDS011;14019;56.964;24.016;2022-12-18T14:51:22;43.97;;;15.20;;
26311;SDS011;14019;56.964;24.016;2022-12-18T14:54:17;44.17;;;15.50;;
26311;SDS011;14019;56.964;24.016;2022-12-18T14:57:23;47.92;;;15.77;;
26311;SDS011;14019;56.964;24.016;2022-12-18T15:03:18;42.90;;;14.70;;
26311;SDS011;14019;56.964;24.016;2022-12-18T15:06:16;48.97;;;16.85;;
26311;SDS011;14019;56.964;24.016;2022-12-18T15:09:03;40.83;;;15.82;;
26311;SDS011;14019;56.964;24.016;2022-12-18T15:18:35;47.55;;;15.38;;
26311;SDS011;14019;56.964;24.016;2022-12-18T15:21:30;42.47;;;16.05;;
26311;SDS011;14019;56.964;24.016;2022-12-18T15:24:18;40.75;;;14.57;;
26311;SDS011;14019;56.964;24.016;2022-12-18T15:27:28;38.35;;;14.00;;
26311;SDS011;14019;56.964;24.016;2022-12-18T15:30:16;43.30;;;15.02;;
26311;SDS011;14019;56.964;24.016;2022-12-18T15:33:17;43.20;;;15.20;;
26311;SDS011;14019;56.964;24.016;2022-12-18T15:36:09;45.65;;;14.80;;
26311;SDS011;14019;56.964;24.016;2022-12-18T15:39:19;38.15;;;13.77;;
26311;SDS011;14019;56.964;24.016;2022-12-18T15:42:07;39.80;;;13.60;;
26311;SDS011;14019;56.964;24.016;2022-12-18T15:45:41;37.38;;;12.85;;
26311;SDS011;14019;56.964;24.016;2022-12-18T15:48:56;37.30;;;13.13;;
26311;SDS011;14019;56.964;24.016;2022-12-18T15:51:58;34.30;;;12.60;;
26311;SDS011;14019;56.964;24.016;2022-12-18T15:54:46;36.92;;;13.23;;
26311;SDS011;14019;56.964;24.016;2022-12-18T15:57:51;34.58;;;12.80;;
26311;SDS011;14019;56.964;24.016;2022-12-18T16:00:39;33.25;;;11.85;;
26311;SDS011;14019;56.964;24.016;2022-12-18T16:03:27;30.15;;;11.50;;
26311;SDS011;14019;56.964;24.016;2022-12-18T16:06:14;38.92;;;12.32;;
26311;SDS011;14019;56.964;24.016;2022-12-18T16:09:01;32.88;;;12.50;;
26311;SDS011;14019;56.964;24.016;2022-12-18T16:11:56;35.30;;;12.43;;
26311;SDS011;14019;56.964;24.016;2022-12-18T16:14:43;31.98;;;12.10;;
26311;SDS011;14019;56.964;24.016;2022-12-18T16:17:30;33.55;;;11.20;;
26311;SDS011;14019;56.964;24.016;2022-12-18T16:20:17;33.22;;;12.38;;
26311;SDS011;14019;56.964;24.016;2022-12-18T16:23:03;37.15;;;12.32;;
26311;SDS011;14019;56.964;24.016;2022-12-18T16:25:50;36.75;;;12.68;;
26311;SDS011;14019;56.964;24.016;2022-12-18T16:28:36;31.98;;;12.75;;
26311;SDS011;14019;56.964;24.016;2022-12-18T16:31:31;32.50;;;12.23;;
26311;SDS011;14019;56.964;24.016;2022-12-18T16:37:14;33.75;;;12.30;;
26311;SDS011;14019;56.964;24.016;2022-12-18T16:40:03;34.33;;;12.35;;
26311;SDS011;14019;56.964;24.016;2022-12-18T17:23:04;27.70;;;10.50;;
26311;SDS011;14019;56.964;24.016;2022-12-18T17:25:53;27.63;;;10.55;;
26311;SDS011;14019;56.964;24.016;2022-12-18T17:28:41;28.90;;;10.75;;
26311;SDS011;14019;56.964;24.016;2022-12-18T17:40:44;25.67;;;10.00;;
26311;SDS011;14019;56.964;24.016;2022-12-18T17:43:33;28.30;;;9.68;;
26311;SDS011;14019;56.964;24.016;2022-12-18T17:46:27;25.95;;;9.55;;
26311;SDS011;14019;56.964;24.016;2022-12-18T17:49:15;31.25;;;9.88;;
26311;SDS011;14019;56.964;24.016;2022-12-18T17:52:02;28.15;;;9.88;;
26311;SDS011;14019;56.964;24.016;2022-12-18T17:54:53;25.77;;;9.45;;
26311;SDS011;14019;56.964;24.016;2022-12-18T17:57:40;22.65;;;9.02;;
26311;SDS011;14019;56.964;24.016;2022-12-18T18:00:28;22.48;;;8.85;;
26311;SDS011;14019;56.964;24.016;2022-12-18T18:03:17;25.00;;;8.30;;
26311;SDS011;14019;56.964;24.016;2022-12-18T18:06:04;25.10;;;8.77;;
26311;SDS011;14019;56.964;24.016;2022-12-18T18:08:50;24.38;;;9.35;;
26311;SDS011;14019;56.964;24.016;2022-12-18T18:11:50;19.42;;;7.80;;
26311;SDS011;14019;56.964;24.016;2022-12-18T18:14:57;23.75;;;7.95;;
26311;SDS011;14019;56.964;24.016;2022-12-18T18:17:44;23.70;;;7.82;;
26311;SDS011;14019;56.964;24.016;2022-12-18T18:20:31;19.05;;;7.55;;
26311;SDS011;14019;56.964;24.016;2022-12-18T18:23:20;18.83;;;7.18;;
26311;SDS011;14019;56.964;24.016;2022-12-18T18:26:08;23.13;;;7.53;;
26311;SDS011;14019;56.964;24.016;2022-12-18T18:28:58;19.17;;;7.28;;
26311;SDS011;14019;56.964;24.016;2022-12-18T18:31:48;19.67;;;7.53;;
26311;SDS011;14019;56.964;24.016;2022-12-18T18:34:34;21.27;;;7.40;;
26311;SDS011;14019;56.964;24.016;2022-12-18T18:37:25;24.50;;;7.38;;
26311;SDS011;14019;56.964;24.016;2022-12-18T18:40:15;23.20;;;7.10;;
26311;SDS011;14019;56.964;24.016;2022-12-18T18:43:12;21.55;;;6.65;;
26311;SDS011;14019;56.964;24.016;2022-12-18T18:46:08;24.08;;;7.45;;
26311;SDS011;14019;56.964;24.016;2022-12-18T18:50:11;19.98;;;6.60;;
26311;SDS011;14019;56.964;24.016;2022-12-18T18:53:01;15.05;;;5.60;;
26311;SDS011;14019;56.964;24.016;2022-12-18T18:55:53;17.25;;;6.45;;
26311;SDS011;14019;56.964;24.016;2022-12-18T18:59:02;21.65;;;6.97;;
26311;SDS011;14019;56.964;24.016;2022-12-18T19:01:49;16.92;;;6.53;;
26311;SDS011;14019;56.964;24.016;2022-12-18T19:04:38;20.75;;;7.53;;
26311;SDS011;14019;56.964;24.016;2022-12-18T19:07:32;21.25;;;6.35;;
26311;SDS011;14019;56.964;24.016;2022-12-18T19:10:21;15.68;;;6.10;;
26311;SDS011;14019;56.964;24.016;2022-12-18T19:13:15;16.65;;;6.35;;
26311;SDS011;14019;56.964;24.016;2022-12-18T19:16:14;18.20;;;6.65;;
26311;SDS011;14019;56.964;24.016;2022-12-18T19:19:01;21.08;;;6.00;;
26311;SDS011;14019;56.964;24.016;2022-12-18T19:21:56;15.40;;;5.78;;
26311;SDS011;14019;56.964;24.016;2022-12-18T19:25:12;15.80;;;6.15;;
26311;SDS011;14019;56.964;24.016;2022-12-18T19:28:28;16.30;;;5.82;;
26311;SDS011;14019;56.964;24.016;2022-12-18T19:31:15;16.70;;;6.10;;
26311;SDS011;14019;56.964;24.016;2022-12-18T19:34:12;17.30;;;6.43;;
26311;SDS011;14019;56.964;24.016;2022-12-18T19:36:59;17.30;;;6.05;;
26311;SDS011;14019;56.964;24.016;2022-12-18T19:39:53;14.60;;;5.60;;
26311;SDS011;14019;56.964;24.016;2022-12-18T19:42:46;17.67;;;5.95;;
26311;SDS011;14019;56.964;24.016;2022-12-18T19:45:33;16.33;;;6.18;;